sensor_id;sensor_type;location;lat;lon;timestamp;pressure;altitude;pressure_sealevel;temperature;humidity
4199;BME280;2113;50.946;14.610;2022-10-16T00:01:29;96935.34;;;17.21;68.19
4199;BME280;2113;50.946;14.610;2022-10-16T00:04:00;96940.88;;;17.17;68.16
4199;BME280;2113;50.946;14.610;2022-10-16T00:06:30;96938.53;;;16.85;69.68
4199;BME280;2113;50.946;14.610;2022-10-16T00:08:59;96947.69;;;17.07;68.85
4199;BME280;2113;50.946;14.610;2022-10-16T00:11:29;96950.97;;;16.96;68.52
4199;BME280;2113;50.946;14.610;2022-10-16T00:14:01;96941.53;;;16.93;68.66
4199;BME280;2113;50.946;14.610;2022-10-16T00:16:32;96950.91;;;16.83;69.11
4199;BME280;2113;50.946;14.610;2022-10-16T00:19:01;96952.22;;;16.90;68.92
4199;BME280;2113;50.946;14.610;2022-10-16T00:21:31;96952.06;;;17.06;69.11
4199;BME280;2113;50.946;14.610;2022-10-16T00:24:18;96943.97;;;17.36;67.81
4199;BME280;2113;50.946;14.610;2022-10-16T00:26:49;96944.00;;;17.49;67.14
4199;BME280;2113;50.946;14.610;2022-10-16T00:29:18;96946.97;;;17.45;67.19
4199;BME280;2113;50.946;14.610;2022-10-16T00:31:48;96952.09;;;17.46;66.94
4199;BME280;2113;50.946;14.610;2022-10-16T00:34:16;96952.22;;;17.45;66.92
4199;BME280;2113;50.946;14.610;2022-10-16T00:36:44;96950.97;;;17.23;67.87
4199;BME280;2113;50.946;14.610;2022-10-16T00:39:13;96950.63;;;17.15;68.31
4199;BME280;2113;50.946;14.610;2022-10-16T00:41:41;96946.72;;;17.08;68.68
4199;BME280;2113;50.946;14.610;2022-10-16T00:44:42;96952.72;;;17.10;67.83
4199;BME280;2113;50.946;14.610;2022-10-16T00:47:17;96949.94;;;16.98;68.61
4199;BME280;2113;50.946;14.610;2022-10-16T00:49:50;96960.34;;;17.27;68.25
4199;BME280;2113;50.946;14.610;2022-10-16T00:52:19;96959.44;;;16.87;69.26
4199;BME280;2113;50.946;14.610;2022-10-16T00:54:49;96960.44;;;16.98;70.00
4199;BME280;2113;50.946;14.610;2022-10-16T00:57:18;96967.09;;;17.31;68.30
4199;BME280;2113;50.946;14.610;2022-10-16T00:59:47;96965.59;;;17.27;67.97
4199;BME280;2113;50.946;14.610;2022-10-16T01:02:17;96969.38;;;17.23;68.24
4199;BME280;2113;50.946;14.610;2022-10-16T01:04:48;96972.19;;;17.47;67.72
4199;BME280;2113;50.946;14.610;2022-10-16T01:07:25;96971.84;;;17.39;67.61
4199;BME280;2113;50.946;14.610;2022-10-16T01:10:06;96977.97;;;17.25;67.46
4199;BME280;2113;50.946;14.610;2022-10-16T01:12:41;96967.78;;;17.60;66.63
4199;BME280;2113;50.946;14.610;2022-10-16T01:15:18;96982.47;;;17.37;67.53
4199;BME280;2113;50.946;14.610;2022-10-16T01:17:59;96980.34;;;17.83;66.19
4199;BME280;2113;50.946;14.610;2022-10-16T01:20:31;96990.50;;;17.61;66.18
4199;BME280;2113;50.946;14.610;2022-10-16T01:23:21;96988.44;;;17.79;65.77
4199;BME280;2113;50.946;14.610;2022-10-16T01:26:15;96996.97;;;17.83;65.64
4199;BME280;2113;50.946;14.610;2022-10-16T01:28:53;96978.72;;;17.67;66.08
4199;BME280;2113;50.946;14.610;2022-10-16T01:31:25;96983.97;;;17.54;66.28
4199;BME280;2113;50.946;14.610;2022-10-16T01:33:59;96990.06;;;17.55;65.87
4199;BME280;2113;50.946;14.610;2022-10-16T01:36:36;96990.91;;;17.42;65.50
4199;BME280;2113;50.946;14.610;2022-10-16T01:39:06;96983.69;;;17.32;65.76
4199;BME280;2113;50.946;14.610;2022-10-16T01:41:40;96978.19;;;17.22;66.13
4199;BME280;2113;50.946;14.610;2022-10-16T01:44:11;96978.63;;;17.01;66.11
4199;BME280;2113;50.946;14.610;2022-10-16T01:46:46;96975.94;;;16.89;66.46
4199;BME280;2113;50.946;14.610;2022-10-16T01:49:17;96975.88;;;16.76;66.84
4199;BME280;2113;50.946;14.610;2022-10-16T01:51:49;96973.56;;;16.57;67.60
4199;BME280;2113;50.946;14.610;2022-10-16T01:54:22;96973.06;;;16.64;67.13
4199;BME280;2113;50.946;14.610;2022-10-16T01:56:51;96961.25;;;16.57;67.63
4199;BME280;2113;50.946;14.610;2022-10-16T01:59:23;96963.88;;;16.43;68.29
4199;BME280;2113;50.946;14.610;2022-10-16T02:01:56;96968.97;;;16.60;67.78
4199;BME280;2113;50.946;14.610;2022-10-16T02:04:29;96987.78;;;16.10;68.53
4199;BME280;2113;50.946;14.610;2022-10-16T02:07:00;96992.28;;;16.08;69.11
4199;BME280;2113;50.946;14.610;2022-10-16T02:09:29;96992.75;;;16.29;68.00
4199;BME280;2113;50.946;14.610;2022-10-16T02:12:01;97006.72;;;16.29;67.85
4199;BME280;2113;50.946;14.610;2022-10-16T02:14:32;97009.06;;;16.05;67.63
4199;BME280;2113;50.946;14.610;2022-10-16T02:17:01;96997.25;;;16.12;66.86
4199;BME280;2113;50.946;14.610;2022-10-16T02:19:29;96995.94;;;16.05;67.14
4199;BME280;2113;50.946;14.610;2022-10-16T02:22:02;96999.78;;;15.99;67.93
4199;BME280;2113;50.946;14.610;2022-10-16T02:24:33;96994.31;;;16.02;67.67
4199;BME280;2113;50.946;14.610;2022-10-16T02:27:11;96997.78;;;16.03;67.91
4199;BME280;2113;50.946;14.610;2022-10-16T02:29:46;97011.00;;;16.01;67.70
4199;BME280;2113;50.946;14.610;2022-10-16T02:32:21;96998.72;;;15.72;67.75
4199;BME280;2113;50.946;14.610;2022-10-16T02:34:52;97005.53;;;15.60;69.03
4199;BME280;2113;50.946;14.610;2022-10-16T02:37:21;96999.34;;;15.77;68.74
4199;BME280;2113;50.946;14.610;2022-10-16T02:39:50;97009.91;;;15.75;68.76
4199;BME280;2113;50.946;14.610;2022-10-16T02:42:19;96998.06;;;15.68;69.58
4199;BME280;2113;50.946;14.610;2022-10-16T02:44:49;97008.09;;;15.45;68.93
4199;BME280;2113;50.946;14.610;2022-10-16T02:47:17;97010.16;;;15.71;68.42
4199;BME280;2113;50.946;14.610;2022-10-16T02:49:46;97003.84;;;15.59;67.98
4199;BME280;2113;50.946;14.610;2022-10-16T02:52:15;97006.38;;;15.60;68.22
4199;BME280;2113;50.946;14.610;2022-10-16T02:54:43;97008.00;;;15.63;67.69
4199;BME280;2113;50.946;14.610;2022-10-16T02:57:11;97008.53;;;15.68;67.96
4199;BME280;2113;50.946;14.610;2022-10-16T02:59:40;97015.66;;;15.66;68.42
4199;BME280;2113;50.946;14.610;2022-10-16T03:02:10;97016.19;;;15.57;68.08
4199;BME280;2113;50.946;14.610;2022-10-16T03:04:38;97012.13;;;15.67;68.38
4199;BME280;2113;50.946;14.610;2022-10-16T03:07:07;97011.34;;;15.95;68.11
4199;BME280;2113;50.946;14.610;2022-10-16T03:09:36;97021.09;;;15.63;68.89
4199;BME280;2113;50.946;14.610;2022-10-16T03:12:04;97020.63;;;15.87;68.01
4199;BME280;2113;50.946;14.610;2022-10-16T03:14:33;97014.63;;;15.99;67.62
4199;BME280;2113;50.946;14.610;2022-10-16T03:17:01;97023.41;;;16.28;67.48
4199;BME280;2113;50.946;14.610;2022-10-16T03:19:31;97025.91;;;16.30;67.87
4199;BME280;2113;50.946;14.610;2022-10-16T03:21:59;97027.53;;;16.32;69.24
4199;BME280;2113;50.946;14.610;2022-10-16T03:24:28;97012.88;;;16.71;68.26
4199;BME280;2113;50.946;14.610;2022-10-16T03:26:56;97024.03;;;16.75;67.82
4199;BME280;2113;50.946;14.610;2022-10-16T03:29:24;97018.69;;;16.76;67.57
4199;BME280;2113;50.946;14.610;2022-10-16T03:31:54;97021.06;;;16.67;67.66
4199;BME280;2113;50.946;14.610;2022-10-16T03:34:23;97017.13;;;16.74;68.42
4199;BME280;2113;50.946;14.610;2022-10-16T03:36:53;97016.34;;;16.72;68.18
4199;BME280;2113;50.946;14.610;2022-10-16T03:39:21;97010.81;;;16.91;67.51
4199;BME280;2113;50.946;14.610;2022-10-16T03:41:50;97012.44;;;16.93;67.45
4199;BME280;2113;50.946;14.610;2022-10-16T03:44:19;97006.97;;;16.96;67.64
4199;BME280;2113;50.946;14.610;2022-10-16T03:46:48;97009.22;;;17.02;67.33
4199;BME280;2113;50.946;14.610;2022-10-16T03:49:16;97032.50;;;16.80;68.35
4199;BME280;2113;50.946;14.610;2022-10-16T03:51:44;97027.22;;;16.94;67.81
4199;BME280;2113;50.946;14.610;2022-10-16T03:54:14;97035.09;;;17.09;67.66
4199;BME280;2113;50.946;14.610;2022-10-16T03:56:43;97041.84;;;16.98;68.00
4199;BME280;2113;50.946;14.610;2022-10-16T03:59:11;97046.34;;;17.11;67.65
4199;BME280;2113;50.946;14.610;2022-10-16T04:01:39;97053.41;;;16.96;68.06
4199;BME280;2113;50.946;14.610;2022-10-16T04:04:08;97053.56;;;17.07;68.66
4199;BME280;2113;50.946;14.610;2022-10-16T04:06:36;97059.25;;;17.14;67.66
4199;BME280;2113;50.946;14.610;2022-10-16T04:09:05;97064.66;;;16.98;69.35
4199;BME280;2113;50.946;14.610;2022-10-16T04:11:34;97065.06;;;17.33;67.72
4199;BME280;2113;50.946;14.610;2022-10-16T04:14:03;97072.00;;;17.34;67.43
4199;BME280;2113;50.946;14.610;2022-10-16T04:16:31;97070.50;;;17.30;67.71
4199;BME280;2113;50.946;14.610;2022-10-16T04:19:00;97070.50;;;17.30;67.99
4199;BME280;2113;50.946;14.610;2022-10-16T04:21:29;97067.44;;;17.09;68.90
4199;BME280;2113;50.946;14.610;2022-10-16T04:23:57;97064.88;;;16.95;69.64
4199;BME280;2113;50.946;14.610;2022-10-16T04:26:26;97062.44;;;17.19;69.53
4199;BME280;2113;50.946;14.610;2022-10-16T04:28:56;97059.53;;;16.82;70.13
4199;BME280;2113;50.946;14.610;2022-10-16T04:31:24;97064.75;;;16.96;70.08
4199;BME280;2113;50.946;14.610;2022-10-16T04:33:53;97070.69;;;16.86;70.22
4199;BME280;2113;50.946;14.610;2022-10-16T04:36:23;97067.84;;;16.89;70.39
4199;BME280;2113;50.946;14.610;2022-10-16T04:38:55;97065.47;;;16.70;70.29
4199;BME280;2113;50.946;14.610;2022-10-16T04:41:23;97057.81;;;16.67;70.41
4199;BME280;2113;50.946;14.610;2022-10-16T04:43:51;97061.94;;;16.71;70.85
4199;BME280;2113;50.946;14.610;2022-10-16T04:46:21;97061.91;;;17.14;68.69
4199;BME280;2113;50.946;14.610;2022-10-16T04:48:50;97064.47;;;16.72;69.91
4199;BME280;2113;50.946;14.610;2022-10-16T04:51:19;97055.59;;;16.89;69.41
4199;BME280;2113;50.946;14.610;2022-10-16T04:53:47;97055.59;;;16.89;69.48
4199;BME280;2113;50.946;14.610;2022-10-16T04:56:17;97068.81;;;16.88;69.05
4199;BME280;2113;50.946;14.610;2022-10-16T04:58:46;97067.00;;;16.74;69.92
4199;BME280;2113;50.946;14.610;2022-10-16T05:01:15;97071.69;;;16.69;69.98
4199;BME280;2113;50.946;14.610;2022-10-16T05:03:44;97064.38;;;16.59;70.89
4199;BME280;2113;50.946;14.610;2022-10-16T05:06:13;97072.03;;;16.48;70.77
4199;BME280;2113;50.946;14.610;2022-10-16T05:08:42;97072.91;;;16.04;72.57
4199;BME280;2113;50.946;14.610;2022-10-16T05:11:11;97071.41;;;16.14;72.13
4199;BME280;2113;50.946;14.610;2022-10-16T05:13:39;97067.34;;;16.39;71.08
4199;BME280;2113;50.946;14.610;2022-10-16T05:16:08;97076.66;;;16.14;71.67
4199;BME280;2113;50.946;14.610;2022-10-16T05:18:36;97081.50;;;16.36;71.15
4199;BME280;2113;50.946;14.610;2022-10-16T05:21:06;97080.88;;;16.47;70.87
4199;BME280;2113;50.946;14.610;2022-10-16T05:23:35;97072.00;;;16.19;71.10
4199;BME280;2113;50.946;14.610;2022-10-16T05:26:03;97075.47;;;15.90;73.21
4199;BME280;2113;50.946;14.610;2022-10-16T05:28:32;97085.94;;;16.05;72.14
4199;BME280;2113;50.946;14.610;2022-10-16T05:31:04;97090.38;;;16.19;71.88
4199;BME280;2113;50.946;14.610;2022-10-16T05:33:33;97080.63;;;16.21;71.72
4199;BME280;2113;50.946;14.610;2022-10-16T05:36:02;97081.91;;;16.00;72.33
4199;BME280;2113;50.946;14.610;2022-10-16T05:38:32;97088.69;;;16.18;71.92
4199;BME280;2113;50.946;14.610;2022-10-16T05:41:01;97078.88;;;15.92;72.96
4199;BME280;2113;50.946;14.610;2022-10-16T05:43:30;97080.69;;;16.05;72.60
4199;BME280;2113;50.946;14.610;2022-10-16T05:46:02;97086.06;;;16.18;72.31
4199;BME280;2113;50.946;14.610;2022-10-16T05:48:32;97090.25;;;15.76;73.45
4199;BME280;2113;50.946;14.610;2022-10-16T05:51:02;97097.13;;;15.93;73.01
4199;BME280;2113;50.946;14.610;2022-10-16T05:53:34;97098.81;;;16.39;71.73
4199;BME280;2113;50.946;14.610;2022-10-16T05:56:03;97096.00;;;16.28;72.51
4199;BME280;2113;50.946;14.610;2022-10-16T05:58:33;97101.00;;;16.75;70.52
4199;BME280;2113;50.946;14.610;2022-10-16T06:01:04;97106.63;;;16.69;70.68
4199;BME280;2113;50.946;14.610;2022-10-16T06:03:34;97111.78;;;16.56;70.76
4199;BME280;2113;50.946;14.610;2022-10-16T06:06:07;97121.81;;;16.50;70.56
4199;BME280;2113;50.946;14.610;2022-10-16T06:08:40;97118.34;;;16.63;70.18
4199;BME280;2113;50.946;14.610;2022-10-16T06:11:11;97117.28;;;16.37;71.73
4199;BME280;2113;50.946;14.610;2022-10-16T06:13:40;97118.72;;;16.57;70.72
4199;BME280;2113;50.946;14.610;2022-10-16T06:16:10;97124.94;;;16.71;70.50
4199;BME280;2113;50.946;14.610;2022-10-16T06:18:39;97131.84;;;16.72;70.33
4199;BME280;2113;50.946;14.610;2022-10-16T06:21:09;97140.09;;;16.51;70.67
4199;BME280;2113;50.946;14.610;2022-10-16T06:23:37;97150.22;;;16.57;70.97
4199;BME280;2113;50.946;14.610;2022-10-16T06:26:09;97146.34;;;16.93;70.12
4199;BME280;2113;50.946;14.610;2022-10-16T06:28:38;97153.41;;;16.48;71.43
4199;BME280;2113;50.946;14.610;2022-10-16T06:31:08;97151.00;;;16.74;70.89
4199;BME280;2113;50.946;14.610;2022-10-16T06:33:37;97153.22;;;16.51;71.52
4199;BME280;2113;50.946;14.610;2022-10-16T06:36:08;97163.25;;;17.18;69.29
4199;BME280;2113;50.946;14.610;2022-10-16T06:38:37;97165.59;;;17.08;69.71
4199;BME280;2113;50.946;14.610;2022-10-16T06:41:09;97166.59;;;17.34;68.84
4199;BME280;2113;50.946;14.610;2022-10-16T06:43:38;97174.47;;;17.49;68.55
4199;BME280;2113;50.946;14.610;2022-10-16T06:46:09;97170.50;;;17.56;67.79
4199;BME280;2113;50.946;14.610;2022-10-16T06:48:38;97182.81;;;17.27;68.92
4199;BME280;2113;50.946;14.610;2022-10-16T06:51:08;97172.94;;;17.59;68.38
4199;BME280;2113;50.946;14.610;2022-10-16T06:53:40;97174.13;;;18.09;66.12
4199;BME280;2113;50.946;14.610;2022-10-16T06:56:31;97171.53;;;18.22;66.09
4199;BME280;2113;50.946;14.610;2022-10-16T06:59:00;97184.13;;;19.47;62.49
4199;BME280;2113;50.946;14.610;2022-10-16T07:01:30;97182.88;;;20.62;59.24
4199;BME280;2113;50.946;14.610;2022-10-16T07:03:58;97170.91;;;25.83;47.58
4199;BME280;2113;50.946;14.610;2022-10-16T07:06:31;97166.25;;;29.99;38.53
4199;BME280;2113;50.946;14.610;2022-10-16T07:09:04;97172.06;;;29.16;36.48
4199;BME280;2113;50.946;14.610;2022-10-16T07:11:35;97162.41;;;28.49;38.52
4199;BME280;2113;50.946;14.610;2022-10-16T07:14:04;97163.38;;;29.05;37.18
4199;BME280;2113;50.946;14.610;2022-10-16T07:16:33;97183.31;;;23.61;47.41
4199;BME280;2113;50.946;14.610;2022-10-16T07:19:02;97180.25;;;24.35;48.65
4199;BME280;2113;50.946;14.610;2022-10-16T07:21:32;97183.00;;;29.54;37.01
4199;BME280;2113;50.946;14.610;2022-10-16T07:24:04;97170.94;;;29.66;35.18
4199;BME280;2113;50.946;14.610;2022-10-16T07:26:36;97183.44;;;28.44;37.52
4199;BME280;2113;50.946;14.610;2022-10-16T07:29:07;97186.47;;;26.51;41.00
4199;BME280;2113;50.946;14.610;2022-10-16T07:31:36;97199.78;;;23.24;49.43
4199;BME280;2113;50.946;14.610;2022-10-16T07:34:05;97197.00;;;23.25;49.57
4199;BME280;2113;50.946;14.610;2022-10-16T07:36:34;97210.56;;;21.93;53.49
4199;BME280;2113;50.946;14.610;2022-10-16T07:39:03;97199.28;;;25.74;45.65
4199;BME280;2113;50.946;14.610;2022-10-16T07:41:32;97194.03;;;29.75;35.94
4199;BME280;2113;50.946;14.610;2022-10-16T07:44:05;97199.63;;;26.16;43.09
4199;BME280;2113;50.946;14.610;2022-10-16T07:46:33;97203.03;;;24.28;47.08
4199;BME280;2113;50.946;14.610;2022-10-16T07:49:02;97212.72;;;26.46;43.16
4199;BME280;2113;50.946;14.610;2022-10-16T07:51:31;97208.22;;;28.54;38.55
4199;BME280;2113;50.946;14.610;2022-10-16T07:54:00;97210.66;;;29.94;34.85
4199;BME280;2113;50.946;14.610;2022-10-16T07:56:30;97230.00;;;25.31;43.64
4199;BME280;2113;50.946;14.610;2022-10-16T07:58:59;97235.38;;;21.36;52.50
4199;BME280;2113;50.946;14.610;2022-10-16T08:01:29;97246.81;;;21.59;53.87
4199;BME280;2113;50.946;14.610;2022-10-16T08:03:57;97240.13;;;20.97;54.87
4199;BME280;2113;50.946;14.610;2022-10-16T08:06:26;97245.56;;;19.99;58.34
4199;BME280;2113;50.946;14.610;2022-10-16T08:08:55;97244.44;;;20.38;57.63
4199;BME280;2113;50.946;14.610;2022-10-16T08:11:23;97237.81;;;20.92;56.22
4199;BME280;2113;50.946;14.610;2022-10-16T08:13:51;97243.03;;;22.82;50.62
4199;BME280;2113;50.946;14.610;2022-10-16T08:16:20;97245.53;;;23.16;50.06
4199;BME280;2113;50.946;14.610;2022-10-16T08:18:50;97245.06;;;23.63;48.54
4199;BME280;2113;50.946;14.610;2022-10-16T08:21:20;97233.97;;;24.88;44.96
4199;BME280;2113;50.946;14.610;2022-10-16T08:23:50;97231.19;;;25.93;43.83
4199;BME280;2113;50.946;14.610;2022-10-16T08:26:24;97231.28;;;32.14;32.61
4199;BME280;2113;50.946;14.610;2022-10-16T08:28:53;97235.38;;;29.64;36.31
4199;BME280;2113;50.946;14.610;2022-10-16T08:31:23;97243.78;;;27.09;39.73
4199;BME280;2113;50.946;14.610;2022-10-16T08:33:54;97247.41;;;24.57;45.55
4199;BME280;2113;50.946;14.610;2022-10-16T08:36:23;97249.28;;;22.28;51.02
4199;BME280;2113;50.946;14.610;2022-10-16T08:38:51;97252.19;;;21.23;54.49
4199;BME280;2113;50.946;14.610;2022-10-16T08:41:37;97260.03;;;21.93;52.91
4199;BME280;2113;50.946;14.610;2022-10-16T08:44:34;97266.78;;;22.52;52.20
4199;BME280;2113;50.946;14.610;2022-10-16T08:47:16;97259.44;;;23.60;49.22
4199;BME280;2113;50.946;14.610;2022-10-16T08:49:56;97246.41;;;22.84;51.23
4199;BME280;2113;50.946;14.610;2022-10-16T08:52:29;97254.34;;;23.48;50.02
4199;BME280;2113;50.946;14.610;2022-10-16T08:54:59;97256.03;;;25.37;46.72
4199;BME280;2113;50.946;14.610;2022-10-16T09:00:13;97242.88;;;25.26;43.97
4199;BME280;2113;50.946;14.610;2022-10-16T09:02:46;97249.16;;;22.62;51.26
4199;BME280;2113;50.946;14.610;2022-10-16T09:05:24;97253.19;;;22.01;51.97
4199;BME280;2113;50.946;14.610;2022-10-16T09:08:03;97255.56;;;21.93;52.69
4199;BME280;2113;50.946;14.610;2022-10-16T09:10:47;97259.69;;;21.63;54.44
4199;BME280;2113;50.946;14.610;2022-10-16T09:13:23;97257.88;;;21.86;53.87
4199;BME280;2113;50.946;14.610;2022-10-16T09:16:01;97250.78;;;20.84;55.55
4199;BME280;2113;50.946;14.610;2022-10-16T09:18:37;97243.47;;;21.57;55.18
4199;BME280;2113;50.946;14.610;2022-10-16T09:21:14;97239.31;;;20.48;56.62
4199;BME280;2113;50.946;14.610;2022-10-16T09:23:45;97243.84;;;21.05;55.70
4199;BME280;2113;50.946;14.610;2022-10-16T09:26:15;97257.63;;;20.86;56.63
4199;BME280;2113;50.946;14.610;2022-10-16T09:28:44;97264.25;;;20.92;56.89
4199;BME280;2113;50.946;14.610;2022-10-16T09:31:18;97268.69;;;21.49;55.93
4199;BME280;2113;50.946;14.610;2022-10-16T09:33:50;97270.28;;;21.63;53.81
4199;BME280;2113;50.946;14.610;2022-10-16T09:36:23;97271.03;;;21.19;56.29
4199;BME280;2113;50.946;14.610;2022-10-16T09:39:03;97272.81;;;20.60;58.22
4199;BME280;2113;50.946;14.610;2022-10-16T09:41:37;97275.00;;;20.53;58.21
4199;BME280;2113;50.946;14.610;2022-10-16T09:44:18;97278.44;;;21.49;55.08
4199;BME280;2113;50.946;14.610;2022-10-16T09:46:47;97276.22;;;21.31;55.51
4199;BME280;2113;50.946;14.610;2022-10-16T09:49:22;97265.81;;;22.53;52.65
4199;BME280;2113;50.946;14.610;2022-10-16T09:52:03;97264.13;;;23.47;50.93
4199;BME280;2113;50.946;14.610;2022-10-16T09:54:31;97271.13;;;24.29;48.63
4199;BME280;2113;50.946;14.610;2022-10-16T09:57:05;97263.47;;;25.71;44.82
4199;BME280;2113;50.946;14.610;2022-10-16T09:59:34;97276.69;;;24.16;47.72
4199;BME280;2113;50.946;14.610;2022-10-16T10:02:04;97265.19;;;23.14;50.87
4199;BME280;2113;50.946;14.610;2022-10-16T10:04:42;97268.09;;;23.11;50.78
4199;BME280;2113;50.946;14.610;2022-10-16T10:07:23;97271.72;;;22.77;51.84
4199;BME280;2113;50.946;14.610;2022-10-16T10:09:55;97270.16;;;22.54;52.84
4199;BME280;2113;50.946;14.610;2022-10-16T10:12:25;97270.91;;;22.44;52.69
4199;BME280;2113;50.946;14.610;2022-10-16T10:14:57;97268.81;;;23.34;50.59
4199;BME280;2113;50.946;14.610;2022-10-16T10:17:27;97268.06;;;24.43;47.83
4199;BME280;2113;50.946;14.610;2022-10-16T10:19:58;97271.13;;;24.29;47.94
4199;BME280;2113;50.946;14.610;2022-10-16T10:22:40;97270.88;;;25.77;45.29
4199;BME280;2113;50.946;14.610;2022-10-16T10:25:19;97269.19;;;27.39;40.88
4199;BME280;2113;50.946;14.610;2022-10-16T10:28:04;97277.38;;;26.48;42.41
4199;BME280;2113;50.946;14.610;2022-10-16T10:30:39;97268.47;;;24.29;48.47
4199;BME280;2113;50.946;14.610;2022-10-16T10:33:18;97282.84;;;22.39;51.89
4199;BME280;2113;50.946;14.610;2022-10-16T10:35:55;97288.00;;;22.40;53.07
4199;BME280;2113;50.946;14.610;2022-10-16T10:38:33;97289.25;;;21.68;54.33
4199;BME280;2113;50.946;14.610;2022-10-16T10:41:22;97307.06;;;21.89;53.69
4199;BME280;2113;50.946;14.610;2022-10-16T10:44:03;97298.41;;;21.98;54.22
4199;BME280;2113;50.946;14.610;2022-10-16T10:46:41;97288.53;;;22.12;54.08
4199;BME280;2113;50.946;14.610;2022-10-16T10:52:58;97299.56;;;22.39;53.78
4199;BME280;2113;50.946;14.610;2022-10-16T10:55:36;97305.44;;;22.43;53.38
4199;BME280;2113;50.946;14.610;2022-10-16T11:01:07;97312.34;;;22.12;54.51
4199;BME280;2113;50.946;14.610;2022-10-16T11:03:50;97297.94;;;21.59;55.28
4199;BME280;2113;50.946;14.610;2022-10-16T11:06:26;97314.16;;;22.11;54.59
4199;BME280;2113;50.946;14.610;2022-10-16T11:09:02;97317.19;;;21.73;55.15
4199;BME280;2113;50.946;14.610;2022-10-16T11:11:40;97321.91;;;21.34;55.81
4199;BME280;2113;50.946;14.610;2022-10-16T11:14:14;97318.31;;;21.35;56.00
4199;BME280;2113;50.946;14.610;2022-10-16T11:16:50;97314.22;;;21.42;56.60
4199;BME280;2113;50.946;14.610;2022-10-16T11:19:28;97310.19;;;21.02;57.02
4199;BME280;2113;50.946;14.610;2022-10-16T11:22:03;97309.72;;;21.08;57.57
4199;BME280;2113;50.946;14.610;2022-10-16T11:24:41;97318.78;;;21.40;56.54
4199;BME280;2113;50.946;14.610;2022-10-16T11:27:21;97315.94;;;22.10;54.92
4199;BME280;2113;50.946;14.610;2022-10-16T11:30:03;97323.41;;;22.39;53.64
4199;BME280;2113;50.946;14.610;2022-10-16T11:33:22;97324.59;;;22.24;54.98
4199;BME280;2113;50.946;14.610;2022-10-16T11:36:15;97331.69;;;22.57;53.44
4199;BME280;2113;50.946;14.610;2022-10-16T11:39:02;97327.88;;;23.15;51.93
4199;BME280;2113;50.946;14.610;2022-10-16T11:41:45;97319.75;;;24.10;50.19
4199;BME280;2113;50.946;14.610;2022-10-16T11:44:36;97327.44;;;24.13;49.69
4199;BME280;2113;50.946;14.610;2022-10-16T11:47:24;97333.34;;;23.86;51.10
4199;BME280;2113;50.946;14.610;2022-10-16T11:50:30;97317.16;;;24.49;48.94
4199;BME280;2113;50.946;14.610;2022-10-16T11:53:16;97333.50;;;24.25;49.41
4199;BME280;2113;50.946;14.610;2022-10-16T11:55:52;97341.72;;;24.22;48.55
4199;BME280;2113;50.946;14.610;2022-10-16T11:58:29;97320.88;;;25.36;48.68
4199;BME280;2113;50.946;14.610;2022-10-16T12:01:17;97315.97;;;25.21;48.23
4199;BME280;2113;50.946;14.610;2022-10-16T12:04:16;97330.88;;;23.94;48.81
4199;BME280;2113;50.946;14.610;2022-10-16T12:07:02;97321.97;;;23.53;50.18
4199;BME280;2113;50.946;14.610;2022-10-16T12:09:40;97318.75;;;22.96;51.56
4199;BME280;2113;50.946;14.610;2022-10-16T12:12:28;97317.66;;;24.14;49.41
4199;BME280;2113;50.946;14.610;2022-10-16T12:15:22;97318.66;;;25.78;46.09
4199;BME280;2113;50.946;14.610;2022-10-16T12:18:27;97316.13;;;26.24;45.04
4199;BME280;2113;50.946;14.610;2022-10-16T12:21:01;97322.25;;;26.52;44.49
4199;BME280;2113;50.946;14.610;2022-10-16T12:23:37;97316.88;;;26.34;43.68
4199;BME280;2113;50.946;14.610;2022-10-16T12:26:14;97324.63;;;26.00;44.14
4199;BME280;2113;50.946;14.610;2022-10-16T12:29:13;97329.84;;;24.26;48.37
4199;BME280;2113;50.946;14.610;2022-10-16T12:31:46;97333.84;;;24.51;47.81
4199;BME280;2113;50.946;14.610;2022-10-16T12:34:37;97324.84;;;23.71;49.77
4199;BME280;2113;50.946;14.610;2022-10-16T12:37:15;97332.38;;;23.66;50.81
4199;BME280;2113;50.946;14.610;2022-10-16T12:39:54;97335.66;;;24.00;49.88
4199;BME280;2113;50.946;14.610;2022-10-16T12:42:34;97341.31;;;24.67;48.66
4199;BME280;2113;50.946;14.610;2022-10-16T12:45:30;97334.44;;;25.43;46.78
4199;BME280;2113;50.946;14.610;2022-10-16T12:48:17;97328.66;;;26.14;44.62
4199;BME280;2113;50.946;14.610;2022-10-16T12:51:23;97325.06;;;26.51;43.38
4199;BME280;2113;50.946;14.610;2022-10-16T12:54:03;97336.28;;;25.99;44.50
4199;BME280;2113;50.946;14.610;2022-10-16T12:56:47;97334.03;;;25.47;45.73
4199;BME280;2113;50.946;14.610;2022-10-16T12:59:29;97342.78;;;25.77;45.78
4199;BME280;2113;50.946;14.610;2022-10-16T13:02:49;97338.13;;;25.32;46.12
4199;BME280;2113;50.946;14.610;2022-10-16T13:05:33;97338.03;;;25.71;45.85
4199;BME280;2113;50.946;14.610;2022-10-16T13:08:33;97348.59;;;24.85;45.56
4199;BME280;2113;50.946;14.610;2022-10-16T13:11:20;97353.00;;;24.04;48.56
4199;BME280;2113;50.946;14.610;2022-10-16T13:14:11;97348.94;;;24.51;47.68
4199;BME280;2113;50.946;14.610;2022-10-16T13:16:57;97351.25;;;25.04;47.83
4199;BME280;2113;50.946;14.610;2022-10-16T13:19:45;97357.97;;;24.69;48.26
4199;BME280;2113;50.946;14.610;2022-10-16T13:22:32;97357.41;;;24.95;48.60
4199;BME280;2113;50.946;14.610;2022-10-16T13:25:22;97362.53;;;24.17;48.59
4199;BME280;2113;50.946;14.610;2022-10-16T13:28:01;97360.22;;;23.93;50.59
4199;BME280;2113;50.946;14.610;2022-10-16T13:30:36;97362.66;;;23.63;50.58
4199;BME280;2113;50.946;14.610;2022-10-16T13:33:17;97370.00;;;23.92;50.37
4199;BME280;2113;50.946;14.610;2022-10-16T13:35:55;97371.28;;;23.35;51.36
4199;BME280;2113;50.946;14.610;2022-10-16T13:38:37;97374.31;;;23.30;51.80
4199;BME280;2113;50.946;14.610;2022-10-16T13:41:17;97373.88;;;23.46;51.63
4199;BME280;2113;50.946;14.610;2022-10-16T13:43:50;97374.63;;;23.37;51.45
4199;BME280;2113;50.946;14.610;2022-10-16T13:46:27;97376.13;;;22.97;52.29
4199;BME280;2113;50.946;14.610;2022-10-16T13:49:10;97369.84;;;23.31;52.34
4199;BME280;2113;50.946;14.610;2022-10-16T13:51:56;97371.09;;;23.69;51.45
4199;BME280;2113;50.946;14.610;2022-10-16T13:54:31;97370.13;;;23.70;50.23
4199;BME280;2113;50.946;14.610;2022-10-16T13:57:13;97378.78;;;23.72;50.82